SWA606 KBNA-KDEN
Flight info
| Callsign | SWA606 |
|---|---|
| Flight time | 2h 38m |
| Altitude | 30000 |
| Route | PARDN4 NAKIY SGF KK51C OATHE CLASH5 |
| Aircraft | B38M/M-SADE2E3GHIJ4J7P2RWZ/LB1D1 |
Departure
| Time | 2026-05-07 22:27 |
|---|---|
| Airport | Nashville International Airport (KBNA) |
Arrival
| Time | 2026-05-08 01:05 |
|---|---|
| Airport | Denver International Airport (KDEN) |
| Time | Latitude | Longitude | Altitude | Speed | Heading |
|---|---|---|---|---|---|
| 2026-05-07 22:10 | 36.12769 | -86.66858 | 571 ft | 0 kts | 311° |
| 2026-05-07 22:13 | 36.12756 | -86.66842 | 573 ft | 4 kts | 327° |
| 2026-05-07 22:14 | 36.12732 | -86.66833 | 574 ft | 4 kts | 5° |
| 2026-05-07 22:14 | 36.12708 | -86.66843 | 572 ft | 4 kts | 38° |
| 2026-05-07 22:14 | 36.12703 | -86.66848 | 575 ft | 0 kts | 41° |
| 2026-05-07 22:19 | 36.12704 | -86.66848 | 572 ft | 1 kts | 41° |
| 2026-05-07 22:19 | 36.12706 | -86.66833 | 572 ft | 3 kts | 110° |
| 2026-05-07 22:20 | 36.12684 | -86.66819 | 572 ft | 4 kts | 183° |
| 2026-05-07 22:20 | 36.12647 | -86.66841 | 572 ft | 10 kts | 209° |
| 2026-05-07 22:20 | 36.12565 | -86.66899 | 574 ft | 17 kts | 210° |
| 2026-05-07 22:20 | 36.12458 | -86.66974 | 577 ft | 16 kts | 210° |
| 2026-05-07 22:21 | 36.12427 | -86.67052 | 580 ft | 11 kts | 306° |
| 2026-05-07 22:21 | 36.12485 | -86.67129 | 578 ft | 15 kts | 313° |
| 2026-05-07 22:21 | 36.12577 | -86.67249 | 579 ft | 21 kts | 313° |
| 2026-05-07 22:21 | 36.12681 | -86.67385 | 578 ft | 23 kts | 313° |
| 2026-05-07 22:22 | 36.12799 | -86.67540 | 578 ft | 26 kts | 313° |
| 2026-05-07 22:22 | 36.12915 | -86.67691 | 578 ft | 25 kts | 314° |
| 2026-05-07 22:22 | 36.13020 | -86.67827 | 577 ft | 19 kts | 313° |
| 2026-05-07 22:22 | 36.13086 | -86.67914 | 582 ft | 11 kts | 309° |
| 2026-05-07 22:23 | 36.13067 | -86.67953 | 576 ft | 7 kts | 199° |
| 2026-05-07 22:23 | 36.13003 | -86.67977 | 576 ft | 14 kts | 197° |
| 2026-05-07 22:23 | 36.12931 | -86.68006 | 577 ft | 18 kts | 198° |
| 2026-05-07 22:23 | 36.12784 | -86.68064 | 582 ft | 19 kts | 197° |
| 2026-05-07 22:24 | 36.12648 | -86.68112 | 578 ft | 22 kts | 196° |
| 2026-05-07 22:24 | 36.12498 | -86.68166 | 577 ft | 23 kts | 196° |
| 2026-05-07 22:24 | 36.12339 | -86.68221 | 576 ft | 25 kts | 195° |
| 2026-05-07 22:24 | 36.12175 | -86.68281 | 578 ft | 25 kts | 196° |
| 2026-05-07 22:25 | 36.12008 | -86.68340 | 584 ft | 24 kts | 196° |
| 2026-05-07 22:25 | 36.11878 | -86.68386 | 582 ft | 18 kts | 196° |
| 2026-05-07 22:25 | 36.11765 | -86.68428 | 584 ft | 14 kts | 198° |
| 2026-05-07 22:25 | 36.11746 | -86.68520 | 582 ft | 14 kts | 289° |
| 2026-05-07 22:26 | 36.11772 | -86.68616 | 581 ft | 9 kts | 293° |
| 2026-05-07 22:26 | 36.11805 | -86.68634 | 584 ft | 9 kts | 7° |
| 2026-05-07 22:26 | 36.11934 | -86.68583 | 578 ft | 46 kts | 17° |
| 2026-05-07 22:26 | 36.12487 | -86.68366 | 575 ft | 118 kts | 17° |
| 2026-05-07 22:27 | 36.13453 | -86.67980 | 626 ft | 169 kts | 18° |
| 2026-05-07 22:27 | 36.14632 | -86.67520 | 1252 ft | 181 kts | 12° |
| 2026-05-07 22:27 | 36.15879 | -86.67298 | 2166 ft | 183 kts | 358° |
| 2026-05-07 22:27 | 36.17186 | -86.67543 | 2844 ft | 202 kts | 346° |
| 2026-05-07 22:28 | 36.18625 | -86.68007 | 3034 ft | 223 kts | 345° |
| 2026-05-07 22:28 | 36.20178 | -86.68532 | 3118 ft | 241 kts | 345° |
| 2026-05-07 22:28 | 36.21827 | -86.69104 | 3192 ft | 250 kts | 344° |
| 2026-05-07 22:28 | 36.23530 | -86.69707 | 3473 ft | 255 kts | 343° |
| 2026-05-07 22:29 | 36.25239 | -86.70317 | 4525 ft | 257 kts | 342° |
| 2026-05-07 22:29 | 36.26892 | -86.71171 | 5529 ft | 260 kts | 322° |
| 2026-05-07 22:29 | 36.28093 | -86.72826 | 6254 ft | 259 kts | 297° |
| 2026-05-07 22:29 | 36.28554 | -86.74945 | 6446 ft | 255 kts | 271° |
| 2026-05-07 22:30 | 36.28308 | -86.77128 | 6614 ft | 256 kts | 262° |
| 2026-05-07 22:30 | 36.27990 | -86.79297 | 6746 ft | 256 kts | 261° |
| 2026-05-07 22:30 | 36.27663 | -86.81463 | 6871 ft | 256 kts | 261° |
| 2026-05-07 22:30 | 36.27331 | -86.83635 | 6955 ft | 256 kts | 261° |
| 2026-05-07 22:31 | 36.27223 | -86.85826 | 7515 ft | 252 kts | 271° |
| 2026-05-07 22:31 | 36.27226 | -86.88008 | 8482 ft | 255 kts | 270° |
| 2026-05-07 22:31 | 36.27223 | -86.90197 | 9507 ft | 254 kts | 270° |
| 2026-05-07 22:31 | 36.27219 | -86.92400 | 10402 ft | 258 kts | 270° |
| 2026-05-07 22:32 | 36.27216 | -86.94675 | 11015 ft | 269 kts | 270° |
| 2026-05-07 22:32 | 36.27210 | -86.96985 | 11919 ft | 267 kts | 269° |
| 2026-05-07 22:32 | 36.27205 | -86.99292 | 12796 ft | 268 kts | 269° |
| 2026-05-07 22:32 | 36.27199 | -87.01613 | 13640 ft | 270 kts | 269° |
| 2026-05-07 22:33 | 36.27194 | -87.03946 | 14418 ft | 271 kts | 269° |
| 2026-05-07 22:33 | 36.27188 | -87.06290 | 15169 ft | 272 kts | 269° |
| 2026-05-07 22:33 | 36.27182 | -87.08631 | 15887 ft | 273 kts | 269° |
| 2026-05-07 22:33 | 36.27175 | -87.10993 | 16609 ft | 274 kts | 269° |
| 2026-05-07 22:34 | 36.27167 | -87.13361 | 17330 ft | 275 kts | 269° |
| 2026-05-07 22:34 | 36.27158 | -87.15737 | 18003 ft | 277 kts | 269° |
| 2026-05-07 22:34 | 36.27149 | -87.18129 | 18653 ft | 278 kts | 269° |
| 2026-05-07 22:34 | 36.27141 | -87.20534 | 19221 ft | 280 kts | 269° |
| 2026-05-07 22:35 | 36.27212 | -87.22951 | 19772 ft | 283 kts | 277° |
| 2026-05-07 22:35 | 36.27604 | -87.25351 | 20325 ft | 285 kts | 277° |
| 2026-05-07 22:35 | 36.27986 | -87.27771 | 20851 ft | 287 kts | 277° |
| 2026-05-07 22:35 | 36.28375 | -87.30210 | 21403 ft | 289 kts | 277° |
| 2026-05-07 22:36 | 36.28763 | -87.32625 | 21919 ft | 291 kts | 277° |
| 2026-05-07 22:36 | 36.29165 | -87.35130 | 22432 ft | 293 kts | 277° |
| 2026-05-07 22:36 | 36.29559 | -87.37578 | 22958 ft | 295 kts | 277° |
| 2026-05-07 22:36 | 36.29961 | -87.40081 | 23468 ft | 297 kts | 277° |
| 2026-05-07 22:37 | 36.30363 | -87.42590 | 23908 ft | 298 kts | 277° |
| 2026-05-07 22:37 | 36.30769 | -87.45119 | 24344 ft | 299 kts | 277° |
| 2026-05-07 22:37 | 36.31172 | -87.47642 | 24824 ft | 298 kts | 277° |
| 2026-05-07 22:37 | 36.31667 | -87.50147 | 25266 ft | 304 kts | 286° |
| 2026-05-07 22:38 | 36.32677 | -87.52492 | 25724 ft | 308 kts | 289° |
| 2026-05-07 22:38 | 36.33693 | -87.54845 | 26104 ft | 310 kts | 290° |
| 2026-05-07 22:38 | 36.34724 | -87.57195 | 26521 ft | 311 kts | 290° |
| 2026-05-07 22:38 | 36.35771 | -87.59557 | 26944 ft | 312 kts | 290° |
| 2026-05-07 22:39 | 36.36825 | -87.61918 | 27351 ft | 313 kts | 290° |
| 2026-05-07 22:39 | 36.37887 | -87.64284 | 27726 ft | 315 kts | 290° |
| 2026-05-07 22:39 | 36.38953 | -87.66660 | 28124 ft | 316 kts | 289° |
| 2026-05-07 22:39 | 36.40022 | -87.69042 | 28488 ft | 317 kts | 289° |
| 2026-05-07 22:40 | 36.41097 | -87.71436 | 28878 ft | 317 kts | 289° |
| 2026-05-07 22:40 | 36.42171 | -87.73831 | 29224 ft | 318 kts | 289° |
| 2026-05-07 22:40 | 36.43253 | -87.76244 | 29567 ft | 320 kts | 289° |
| 2026-05-07 22:40 | 36.44336 | -87.78662 | 29917 ft | 321 kts | 289° |
| 2026-05-07 22:41 | 36.45427 | -87.81101 | 30084 ft | 327 kts | 289° |
| 2026-05-07 22:41 | 36.47696 | -87.86177 | 30074 ft | 345 kts | 289° |
| 2026-05-07 22:42 | 36.50076 | -87.91506 | 30083 ft | 358 kts | 289° |
| 2026-05-07 22:42 | 36.52493 | -87.96929 | 30078 ft | 359 kts | 289° |
| 2026-05-07 22:43 | 36.54944 | -88.02437 | 30072 ft | 367 kts | 289° |
| 2026-05-07 22:43 | 36.57412 | -88.07991 | 30071 ft | 367 kts | 289° |
| 2026-05-07 22:44 | 36.59882 | -88.13561 | 30075 ft | 367 kts | 289° |
| 2026-05-07 22:44 | 36.62347 | -88.19130 | 30073 ft | 368 kts | 289° |
| 2026-05-07 22:45 | 36.64568 | -88.24743 | 30051 ft | 353 kts | 277° |
| 2026-05-07 22:45 | 36.65602 | -88.30738 | 30064 ft | 353 kts | 276° |
| 2026-05-07 22:46 | 36.66592 | -88.36667 | 30067 ft | 352 kts | 275° |
| 2026-05-07 22:46 | 36.67559 | -88.42639 | 30061 ft | 351 kts | 275° |
| 2026-05-07 22:47 | 36.68515 | -88.48598 | 30066 ft | 350 kts | 275° |
| 2026-05-07 22:47 | 36.69472 | -88.54588 | 30065 ft | 350 kts | 275° |
| 2026-05-07 22:48 | 36.70412 | -88.60495 | 30066 ft | 350 kts | 275° |
| 2026-05-07 22:48 | 36.71361 | -88.66473 | 30063 ft | 349 kts | 275° |
| 2026-05-07 22:49 | 36.72293 | -88.72364 | 30063 ft | 348 kts | 275° |
| 2026-05-07 22:49 | 36.73225 | -88.78281 | 30058 ft | 348 kts | 275° |
| 2026-05-07 22:50 | 36.74155 | -88.84200 | 30059 ft | 347 kts | 275° |
| 2026-05-07 22:50 | 36.75080 | -88.90109 | 30057 ft | 347 kts | 275° |
| 2026-05-07 22:51 | 36.76002 | -88.96018 | 30062 ft | 347 kts | 275° |
| 2026-05-07 22:51 | 36.76919 | -89.01914 | 30063 ft | 346 kts | 275° |
| 2026-05-07 22:52 | 36.77833 | -89.07812 | 30065 ft | 346 kts | 275° |
| 2026-05-07 22:52 | 36.78743 | -89.13704 | 30060 ft | 346 kts | 275° |
| 2026-05-07 22:53 | 36.79648 | -89.19589 | 30062 ft | 345 kts | 275° |
| 2026-05-07 22:53 | 36.80550 | -89.25468 | 30064 ft | 345 kts | 275° |
| 2026-05-07 22:54 | 36.81449 | -89.31351 | 30057 ft | 345 kts | 275° |
| 2026-05-07 22:54 | 36.82346 | -89.37235 | 30053 ft | 345 kts | 275° |
| 2026-05-07 22:55 | 36.83239 | -89.43119 | 30054 ft | 345 kts | 275° |
| 2026-05-07 22:55 | 36.84130 | -89.49010 | 30052 ft | 345 kts | 275° |
| 2026-05-07 22:56 | 36.85018 | -89.54898 | 30060 ft | 345 kts | 275° |
| 2026-05-07 22:56 | 36.85902 | -89.60788 | 30054 ft | 345 kts | 275° |
| 2026-05-07 22:57 | 36.86785 | -89.66684 | 30062 ft | 345 kts | 275° |
| 2026-05-07 22:57 | 36.87663 | -89.72575 | 30060 ft | 345 kts | 274° |
| 2026-05-07 22:58 | 36.88539 | -89.78471 | 30056 ft | 345 kts | 274° |
| 2026-05-07 22:58 | 36.89411 | -89.84359 | 30060 ft | 345 kts | 274° |
| 2026-05-07 22:59 | 36.90281 | -89.90249 | 30057 ft | 345 kts | 274° |
| 2026-05-07 22:59 | 36.91147 | -89.96144 | 30058 ft | 345 kts | 274° |
| 2026-05-07 23:00 | 36.92011 | -90.02035 | 30057 ft | 345 kts | 274° |
| 2026-05-07 23:00 | 36.92872 | -90.07932 | 30057 ft | 345 kts | 274° |
| 2026-05-07 23:01 | 36.93728 | -90.13819 | 30054 ft | 344 kts | 274° |
| 2026-05-07 23:01 | 36.94582 | -90.19709 | 30061 ft | 344 kts | 274° |
| 2026-05-07 23:02 | 36.95432 | -90.25599 | 30049 ft | 344 kts | 274° |
| 2026-05-07 23:02 | 36.96279 | -90.31481 | 30052 ft | 344 kts | 274° |
| 2026-05-07 23:03 | 36.97122 | -90.37361 | 30050 ft | 344 kts | 274° |
| 2026-05-07 23:03 | 36.97955 | -90.43198 | 30051 ft | 343 kts | 273° |
| 2026-05-07 23:04 | 36.98789 | -90.49058 | 30054 ft | 342 kts | 273° |
| 2026-05-07 23:04 | 36.99619 | -90.54917 | 30060 ft | 342 kts | 273° |
| 2026-05-07 23:05 | 37.00446 | -90.60767 | 30058 ft | 341 kts | 273° |
| 2026-05-07 23:05 | 37.01270 | -90.66615 | 30059 ft | 342 kts | 273° |
| 2026-05-07 23:06 | 37.02091 | -90.72471 | 30057 ft | 341 kts | 273° |
| 2026-05-07 23:06 | 37.02907 | -90.78317 | 30053 ft | 341 kts | 273° |
| 2026-05-07 23:07 | 37.03721 | -90.84168 | 30059 ft | 341 kts | 273° |
| 2026-05-07 23:07 | 37.04533 | -90.90021 | 30055 ft | 341 kts | 273° |
| 2026-05-07 23:08 | 37.05342 | -90.95876 | 30054 ft | 341 kts | 273° |
| 2026-05-07 23:08 | 37.06149 | -91.01737 | 30058 ft | 342 kts | 273° |
| 2026-05-07 23:09 | 37.06952 | -91.07594 | 30049 ft | 341 kts | 273° |
| 2026-05-07 23:09 | 37.07747 | -91.13415 | 30044 ft | 342 kts | 273° |
| 2026-05-07 23:10 | 37.08545 | -91.19280 | 30058 ft | 342 kts | 273° |
| 2026-05-07 23:10 | 37.09341 | -91.25152 | 30071 ft | 342 kts | 273° |
| 2026-05-07 23:11 | 37.10133 | -91.31015 | 30052 ft | 342 kts | 273° |
| 2026-05-07 23:11 | 37.10923 | -91.36895 | 30053 ft | 342 kts | 273° |
| 2026-05-07 23:12 | 37.11711 | -91.42775 | 30051 ft | 342 kts | 273° |
| 2026-05-07 23:12 | 37.12495 | -91.48647 | 30053 ft | 342 kts | 273° |
| 2026-05-07 23:13 | 37.13144 | -91.53534 | 30053 ft | 342 kts | 273° |
| 2026-05-07 23:13 | 37.13922 | -91.59402 | 30049 ft | 342 kts | 273° |
| 2026-05-07 23:14 | 37.14699 | -91.65294 | 30052 ft | 343 kts | 273° |
| 2026-05-07 23:14 | 37.15474 | -91.71185 | 30049 ft | 343 kts | 273° |
| 2026-05-07 23:15 | 37.16247 | -91.77089 | 30049 ft | 343 kts | 273° |
| 2026-05-07 23:15 | 37.17016 | -91.82990 | 30039 ft | 344 kts | 273° |
| 2026-05-07 23:16 | 37.17785 | -91.88904 | 30048 ft | 344 kts | 273° |
| 2026-05-07 23:16 | 37.18551 | -91.94826 | 30039 ft | 344 kts | 273° |
| 2026-05-07 23:17 | 37.19309 | -92.00713 | 30038 ft | 344 kts | 273° |
| 2026-05-07 23:17 | 37.20070 | -92.06640 | 30034 ft | 344 kts | 273° |
| 2026-05-07 23:18 | 37.20827 | -92.12561 | 30029 ft | 344 kts | 273° |
| 2026-05-07 23:18 | 37.21583 | -92.18503 | 30031 ft | 345 kts | 273° |
| 2026-05-07 23:19 | 37.22336 | -92.24449 | 30030 ft | 345 kts | 273° |
| 2026-05-07 23:19 | 37.23088 | -92.30399 | 30030 ft | 345 kts | 273° |
| 2026-05-07 23:20 | 37.23836 | -92.36351 | 30038 ft | 345 kts | 273° |
| 2026-05-07 23:20 | 37.24581 | -92.42308 | 30031 ft | 345 kts | 273° |
| 2026-05-07 23:21 | 37.25324 | -92.48266 | 30032 ft | 346 kts | 273° |
| 2026-05-07 23:21 | 37.26065 | -92.54233 | 30030 ft | 346 kts | 273° |
| 2026-05-07 23:22 | 37.26802 | -92.60204 | 30031 ft | 346 kts | 273° |
| 2026-05-07 23:22 | 37.27538 | -92.66177 | 30030 ft | 347 kts | 273° |
| 2026-05-07 23:23 | 37.28266 | -92.72124 | 30025 ft | 347 kts | 273° |
| 2026-05-07 23:23 | 37.28997 | -92.78109 | 30029 ft | 347 kts | 273° |
| 2026-05-07 23:24 | 37.29726 | -92.84109 | 30029 ft | 347 kts | 273° |
| 2026-05-07 23:24 | 37.30452 | -92.90102 | 30024 ft | 348 kts | 273° |
| 2026-05-07 23:25 | 37.31176 | -92.96099 | 30023 ft | 347 kts | 273° |
| 2026-05-07 23:25 | 37.31898 | -93.02108 | 30022 ft | 348 kts | 273° |
| 2026-05-07 23:26 | 37.32618 | -93.08121 | 30025 ft | 348 kts | 273° |
| 2026-05-07 23:26 | 37.33335 | -93.14134 | 30020 ft | 348 kts | 273° |
| 2026-05-07 23:27 | 37.34328 | -93.22512 | 30025 ft | 348 kts | 273° |
| 2026-05-07 23:27 | 37.34903 | -93.27392 | 30020 ft | 349 kts | 273° |
| 2026-05-07 23:28 | 37.35646 | -93.33418 | 30012 ft | 352 kts | 278° |
| 2026-05-07 23:28 | 37.37195 | -93.39327 | 30023 ft | 356 kts | 281° |
| 2026-05-07 23:29 | 37.38769 | -93.45231 | 30019 ft | 356 kts | 281° |
| 2026-05-07 23:29 | 37.40350 | -93.51147 | 30019 ft | 357 kts | 281° |
| 2026-05-07 23:30 | 37.41928 | -93.57060 | 30019 ft | 356 kts | 281° |
| 2026-05-07 23:30 | 37.43503 | -93.62978 | 30021 ft | 357 kts | 281° |
| 2026-05-07 23:31 | 37.45076 | -93.68899 | 30021 ft | 357 kts | 281° |
| 2026-05-07 23:31 | 37.46636 | -93.74789 | 30024 ft | 357 kts | 281° |
| 2026-05-07 23:32 | 37.48202 | -93.80711 | 30019 ft | 357 kts | 281° |
| 2026-05-07 23:32 | 37.49787 | -93.86729 | 29985 ft | 370 kts | 285° |
| 2026-05-07 23:33 | 37.51437 | -93.92994 | 30004 ft | 380 kts | 285° |
| 2026-05-07 23:33 | 37.53094 | -93.99305 | 30014 ft | 379 kts | 285° |
| 2026-05-07 23:34 | 37.54747 | -94.05616 | 30021 ft | 379 kts | 285° |
| 2026-05-07 23:34 | 37.56398 | -94.11938 | 30016 ft | 379 kts | 285° |
| 2026-05-07 23:35 | 37.58044 | -94.18256 | 30014 ft | 379 kts | 285° |
| 2026-05-07 23:35 | 37.59687 | -94.24577 | 30010 ft | 380 kts | 285° |
| 2026-05-07 23:36 | 37.61327 | -94.30904 | 30011 ft | 379 kts | 285° |
| 2026-05-07 23:36 | 37.62963 | -94.37232 | 30006 ft | 379 kts | 285° |
| 2026-05-07 23:37 | 37.64585 | -94.43522 | 30001 ft | 379 kts | 285° |
| 2026-05-07 23:37 | 37.66213 | -94.49846 | 30000 ft | 379 kts | 285° |
| 2026-05-07 23:38 | 37.67838 | -94.56179 | 29999 ft | 379 kts | 285° |
| 2026-05-07 23:38 | 37.69460 | -94.62514 | 29995 ft | 379 kts | 285° |
| 2026-05-07 23:39 | 37.71078 | -94.68850 | 29993 ft | 379 kts | 284° |
| 2026-05-07 23:39 | 37.72693 | -94.75191 | 29989 ft | 379 kts | 284° |
| 2026-05-07 23:40 | 37.74304 | -94.81534 | 29993 ft | 379 kts | 284° |
| 2026-05-07 23:40 | 37.75912 | -94.87877 | 29985 ft | 379 kts | 284° |
| 2026-05-07 23:41 | 37.77519 | -94.94235 | 29981 ft | 379 kts | 284° |
| 2026-05-07 23:41 | 37.79120 | -95.00585 | 29979 ft | 379 kts | 284° |
| 2026-05-07 23:42 | 37.80708 | -95.06900 | 29979 ft | 380 kts | 284° |
| 2026-05-07 23:42 | 37.82304 | -95.13265 | 29976 ft | 380 kts | 284° |
| 2026-05-07 23:43 | 37.83898 | -95.19633 | 29973 ft | 380 kts | 284° |
| 2026-05-07 23:43 | 37.85487 | -95.26002 | 29976 ft | 380 kts | 284° |
| 2026-05-07 23:44 | 37.87078 | -95.32392 | 29973 ft | 380 kts | 284° |
| 2026-05-07 23:44 | 37.88661 | -95.38773 | 29971 ft | 380 kts | 284° |
| 2026-05-07 23:45 | 37.90243 | -95.45159 | 29969 ft | 380 kts | 284° |
| 2026-05-07 23:45 | 37.91822 | -95.51555 | 29969 ft | 380 kts | 284° |
| 2026-05-07 23:46 | 37.93396 | -95.57944 | 29967 ft | 380 kts | 284° |
| 2026-05-07 23:46 | 37.94966 | -95.64336 | 29964 ft | 380 kts | 284° |
| 2026-05-07 23:47 | 37.96535 | -95.70740 | 29958 ft | 380 kts | 284° |
| 2026-05-07 23:47 | 37.98099 | -95.77138 | 29952 ft | 380 kts | 284° |
| 2026-05-07 23:48 | 37.99661 | -95.83551 | 29954 ft | 380 kts | 284° |
| 2026-05-07 23:48 | 38.01220 | -95.89961 | 29949 ft | 381 kts | 284° |
| 2026-05-07 23:49 | 38.02766 | -95.96341 | 29957 ft | 381 kts | 284° |
| 2026-05-07 23:49 | 38.04318 | -96.02760 | 29945 ft | 381 kts | 284° |
| 2026-05-07 23:50 | 38.05870 | -96.09192 | 29948 ft | 381 kts | 284° |
| 2026-05-07 23:50 | 38.07414 | -96.15616 | 29942 ft | 381 kts | 284° |
| 2026-05-07 23:51 | 38.08954 | -96.22036 | 29937 ft | 381 kts | 284° |
| 2026-05-07 23:51 | 38.10493 | -96.28468 | 29933 ft | 381 kts | 284° |
| 2026-05-07 23:52 | 38.12029 | -96.34906 | 29933 ft | 381 kts | 284° |
| 2026-05-07 23:52 | 38.13563 | -96.41354 | 29932 ft | 381 kts | 284° |
| 2026-05-07 23:53 | 38.15092 | -96.47801 | 29934 ft | 382 kts | 284° |
| 2026-05-07 23:53 | 38.16620 | -96.54257 | 29934 ft | 382 kts | 284° |
| 2026-05-07 23:54 | 38.18135 | -96.60677 | 29927 ft | 382 kts | 284° |
| 2026-05-07 23:54 | 38.19655 | -96.67137 | 29928 ft | 382 kts | 284° |
| 2026-05-07 23:55 | 38.21174 | -96.73611 | 29923 ft | 382 kts | 284° |
| 2026-05-07 23:55 | 38.22691 | -96.80092 | 29920 ft | 382 kts | 284° |
| 2026-05-07 23:56 | 38.24203 | -96.86572 | 29916 ft | 382 kts | 284° |
| 2026-05-07 23:56 | 38.25715 | -96.93065 | 29913 ft | 383 kts | 284° |
| 2026-05-07 23:57 | 38.26068 | -96.94583 | 29909 ft | 383 kts | 284° |
| 2026-05-07 23:58 | 38.27377 | -97.00228 | 29908 ft | 383 kts | 284° |
| 2026-05-07 23:58 | 38.28041 | -97.03095 | 29911 ft | 383 kts | 284° |
| 2026-05-07 23:59 | 38.29544 | -97.09601 | 29907 ft | 383 kts | 284° |
| 2026-05-07 23:59 | 38.31046 | -97.16119 | 29907 ft | 383 kts | 284° |
| 2026-05-08 00:00 | 38.32544 | -97.22635 | 29906 ft | 383 kts | 284° |
| 2026-05-08 00:00 | 38.34037 | -97.29152 | 29904 ft | 384 kts | 284° |
| 2026-05-08 00:01 | 38.35529 | -97.35681 | 29888 ft | 384 kts | 284° |
| 2026-05-08 00:01 | 38.37017 | -97.42211 | 29889 ft | 384 kts | 283° |
| 2026-05-08 00:02 | 38.38490 | -97.48695 | 29884 ft | 384 kts | 283° |
| 2026-05-08 00:02 | 38.39972 | -97.55231 | 29879 ft | 384 kts | 283° |
| 2026-05-08 00:03 | 38.41451 | -97.61776 | 29877 ft | 384 kts | 283° |
| 2026-05-08 00:03 | 38.42928 | -97.68324 | 29884 ft | 384 kts | 283° |
| 2026-05-08 00:04 | 38.44402 | -97.74874 | 29871 ft | 384 kts | 283° |
| 2026-05-08 00:04 | 38.45872 | -97.81429 | 29875 ft | 384 kts | 283° |
| 2026-05-08 00:05 | 38.47339 | -97.87990 | 29883 ft | 385 kts | 283° |
| 2026-05-08 00:05 | 38.48804 | -97.94556 | 29870 ft | 385 kts | 283° |
| 2026-05-08 00:06 | 38.50130 | -98.01155 | 29868 ft | 382 kts | 276° |
| 2026-05-08 00:06 | 38.50855 | -98.07900 | 29877 ft | 384 kts | 277° |
| 2026-05-08 00:07 | 38.51584 | -98.14648 | 29877 ft | 384 kts | 277° |
| 2026-05-08 00:07 | 38.52305 | -98.21364 | 29878 ft | 384 kts | 277° |
| 2026-05-08 00:08 | 38.53026 | -98.28128 | 29877 ft | 384 kts | 277° |
| 2026-05-08 00:08 | 38.53744 | -98.34895 | 29877 ft | 385 kts | 277° |
| 2026-05-08 00:09 | 38.54458 | -98.41667 | 29872 ft | 385 kts | 277° |
| 2026-05-08 00:09 | 38.55168 | -98.48439 | 29867 ft | 385 kts | 277° |
| 2026-05-08 00:10 | 38.55756 | -98.54079 | 29863 ft | 385 kts | 277° |
| 2026-05-08 00:10 | 38.56460 | -98.60859 | 29872 ft | 386 kts | 277° |
| 2026-05-08 00:11 | 38.57161 | -98.67651 | 29870 ft | 386 kts | 277° |
| 2026-05-08 00:11 | 38.57859 | -98.74461 | 29873 ft | 386 kts | 277° |
| 2026-05-08 00:12 | 38.58553 | -98.81269 | 29875 ft | 386 kts | 277° |
| 2026-05-08 00:12 | 38.59242 | -98.88069 | 29876 ft | 386 kts | 277° |
| 2026-05-08 00:13 | 38.59930 | -98.94887 | 29878 ft | 387 kts | 277° |
| 2026-05-08 00:13 | 38.60612 | -99.01711 | 29876 ft | 387 kts | 277° |
| 2026-05-08 00:14 | 38.61293 | -99.08542 | 29867 ft | 387 kts | 277° |
| 2026-05-08 00:14 | 38.61964 | -99.15324 | 29870 ft | 387 kts | 277° |
| 2026-05-08 00:15 | 38.62637 | -99.22165 | 29874 ft | 388 kts | 277° |
| 2026-05-08 00:15 | 38.63306 | -99.29003 | 29872 ft | 388 kts | 277° |
| 2026-05-08 00:16 | 38.63972 | -99.35851 | 29877 ft | 388 kts | 277° |
| 2026-05-08 00:16 | 38.64633 | -99.42697 | 29876 ft | 388 kts | 277° |
| 2026-05-08 00:17 | 38.65290 | -99.49549 | 29875 ft | 388 kts | 277° |
| 2026-05-08 00:17 | 38.65945 | -99.56409 | 29875 ft | 388 kts | 277° |
| 2026-05-08 00:18 | 38.66595 | -99.63273 | 29874 ft | 388 kts | 278° |
| 2026-05-08 00:18 | 38.67240 | -99.70129 | 29872 ft | 389 kts | 278° |
| 2026-05-08 00:19 | 38.67883 | -99.76995 | 29872 ft | 389 kts | 278° |
| 2026-05-08 00:19 | 38.68518 | -99.83827 | 29869 ft | 389 kts | 278° |
| 2026-05-08 00:20 | 38.69154 | -99.90713 | 29870 ft | 390 kts | 278° |
| 2026-05-08 00:20 | 38.69786 | -99.97605 | 29871 ft | 390 kts | 278° |
| 2026-05-08 00:21 | 38.70417 | -100.04519 | 29868 ft | 391 kts | 278° |
| 2026-05-08 00:21 | 38.71043 | -100.11432 | 29868 ft | 391 kts | 278° |
| 2026-05-08 00:22 | 38.71666 | -100.18360 | 29869 ft | 392 kts | 278° |
| 2026-05-08 00:22 | 38.72286 | -100.25301 | 29869 ft | 392 kts | 278° |
| 2026-05-08 00:23 | 38.72901 | -100.32237 | 29868 ft | 393 kts | 278° |
| 2026-05-08 00:23 | 38.73515 | -100.39197 | 29871 ft | 393 kts | 278° |
| 2026-05-08 00:24 | 38.74124 | -100.46160 | 29873 ft | 394 kts | 278° |
| 2026-05-08 00:24 | 38.74730 | -100.53132 | 29870 ft | 394 kts | 278° |
| 2026-05-08 00:25 | 38.75333 | -100.60117 | 29875 ft | 394 kts | 278° |
| 2026-05-08 00:25 | 38.75931 | -100.67101 | 29880 ft | 394 kts | 278° |
| 2026-05-08 00:26 | 38.76525 | -100.74081 | 29883 ft | 395 kts | 278° |
| 2026-05-08 00:26 | 38.77117 | -100.81078 | 29889 ft | 395 kts | 278° |
| 2026-05-08 00:27 | 38.77700 | -100.88032 | 29888 ft | 395 kts | 278° |
| 2026-05-08 00:27 | 38.78283 | -100.95044 | 29881 ft | 396 kts | 278° |
| 2026-05-08 00:28 | 38.78863 | -101.02059 | 29879 ft | 396 kts | 278° |
| 2026-05-08 00:28 | 38.79440 | -101.09094 | 29876 ft | 397 kts | 278° |
| 2026-05-08 00:29 | 38.80013 | -101.16135 | 29877 ft | 398 kts | 277° |
| 2026-05-08 00:29 | 38.80584 | -101.23195 | 29873 ft | 398 kts | 277° |
| 2026-05-08 00:30 | 38.81151 | -101.30269 | 29879 ft | 399 kts | 277° |
| 2026-05-08 00:30 | 38.81715 | -101.37349 | 29886 ft | 400 kts | 277° |
| 2026-05-08 00:31 | 38.82275 | -101.44443 | 29878 ft | 400 kts | 277° |
| 2026-05-08 00:31 | 38.82833 | -101.51545 | 29887 ft | 401 kts | 277° |
| 2026-05-08 00:32 | 38.83389 | -101.58666 | 29880 ft | 401 kts | 277° |
| 2026-05-08 00:32 | 38.83937 | -101.65746 | 29874 ft | 402 kts | 277° |
| 2026-05-08 00:33 | 38.84489 | -101.72927 | 29878 ft | 402 kts | 277° |
| 2026-05-08 00:33 | 38.84955 | -101.80031 | 29870 ft | 404 kts | 271° |
| 2026-05-08 00:34 | 38.84800 | -101.87256 | 29880 ft | 405 kts | 271° |
| 2026-05-08 00:34 | 38.84726 | -101.94539 | 29878 ft | 406 kts | 271° |
| 2026-05-08 00:35 | 38.84667 | -102.01725 | 29885 ft | 406 kts | 271° |
| 2026-05-08 00:35 | 38.84605 | -102.08969 | 29890 ft | 406 kts | 271° |
| 2026-05-08 00:36 | 38.84538 | -102.16229 | 29890 ft | 407 kts | 271° |
| 2026-05-08 00:36 | 38.84469 | -102.23493 | 29890 ft | 407 kts | 272° |
| 2026-05-08 00:37 | 38.84796 | -102.27074 | 29885 ft | 404 kts | 286° |
| 2026-05-08 00:37 | 38.85555 | -102.30541 | 29886 ft | 405 kts | 285° |
| 2026-05-08 00:38 | 38.87782 | -102.41015 | 29900 ft | 406 kts | 286° |
| 2026-05-08 00:38 | 38.89298 | -102.47994 | 29888 ft | 406 kts | 286° |
| 2026-05-08 00:39 | 38.90815 | -102.54984 | 29895 ft | 406 kts | 286° |
| 2026-05-08 00:39 | 38.92318 | -102.61926 | 29893 ft | 406 kts | 286° |
| 2026-05-08 00:40 | 38.93799 | -102.68795 | 29898 ft | 406 kts | 286° |
| 2026-05-08 00:40 | 38.95305 | -102.75795 | 29901 ft | 406 kts | 286° |
| 2026-05-08 00:41 | 38.96806 | -102.82800 | 29903 ft | 406 kts | 286° |
| 2026-05-08 00:41 | 38.98305 | -102.89798 | 29900 ft | 406 kts | 286° |
| 2026-05-08 00:42 | 38.99805 | -102.96804 | 29900 ft | 406 kts | 286° |
| 2026-05-08 00:42 | 39.01299 | -103.03803 | 29903 ft | 406 kts | 286° |
| 2026-05-08 00:43 | 39.02790 | -103.10810 | 29900 ft | 406 kts | 286° |
| 2026-05-08 00:43 | 39.04318 | -103.17804 | 29896 ft | 406 kts | 292° |
| 2026-05-08 00:44 | 39.07092 | -103.24096 | 29908 ft | 406 kts | 300° |
| 2026-05-08 00:44 | 39.09931 | -103.30165 | 29707 ft | 402 kts | 301° |
| 2026-05-08 00:44 | 39.11393 | -103.33260 | 28715 ft | 406 kts | 301° |
| 2026-05-08 00:45 | 39.12867 | -103.36379 | 27856 ft | 408 kts | 301° |
| 2026-05-08 00:45 | 39.14346 | -103.39507 | 27051 ft | 409 kts | 301° |
| 2026-05-08 00:45 | 39.15827 | -103.42644 | 26206 ft | 412 kts | 301° |
| 2026-05-08 00:45 | 39.17315 | -103.45798 | 25340 ft | 410 kts | 301° |
| 2026-05-08 00:46 | 39.18785 | -103.48914 | 24444 ft | 407 kts | 301° |
| 2026-05-08 00:46 | 39.20261 | -103.52050 | 23707 ft | 411 kts | 301° |
| 2026-05-08 00:46 | 39.21721 | -103.55154 | 23140 ft | 397 kts | 301° |
| 2026-05-08 00:46 | 39.23122 | -103.58135 | 22538 ft | 381 kts | 301° |
| 2026-05-08 00:47 | 39.24474 | -103.61013 | 21873 ft | 369 kts | 301° |
| 2026-05-08 00:47 | 39.25781 | -103.63800 | 21232 ft | 359 kts | 301° |
| 2026-05-08 00:47 | 39.27062 | -103.66532 | 20605 ft | 352 kts | 301° |
| 2026-05-08 00:47 | 39.28326 | -103.69228 | 19989 ft | 350 kts | 301° |
| 2026-05-08 00:48 | 39.29691 | -103.71808 | 19533 ft | 344 kts | 303° |
| 2026-05-08 00:48 | 39.31029 | -103.74322 | 19149 ft | 338 kts | 303° |
| 2026-05-08 00:48 | 39.32355 | -103.76827 | 18762 ft | 337 kts | 303° |
| 2026-05-08 00:48 | 39.33672 | -103.79325 | 18384 ft | 336 kts | 303° |
| 2026-05-08 00:49 | 39.34982 | -103.81814 | 17944 ft | 334 kts | 303° |
| 2026-05-08 00:49 | 39.36288 | -103.84299 | 17494 ft | 333 kts | 303° |
| 2026-05-08 00:49 | 39.37585 | -103.86769 | 17054 ft | 332 kts | 303° |
| 2026-05-08 00:49 | 39.38875 | -103.89228 | 16630 ft | 330 kts | 303° |
| 2026-05-08 00:50 | 39.40163 | -103.91683 | 16204 ft | 329 kts | 303° |
| 2026-05-08 00:50 | 39.41446 | -103.94133 | 15784 ft | 328 kts | 303° |
| 2026-05-08 00:50 | 39.42724 | -103.96573 | 15350 ft | 328 kts | 303° |
| 2026-05-08 00:50 | 39.43790 | -103.99144 | 15021 ft | 323 kts | 286° |
| 2026-05-08 00:51 | 39.44018 | -104.02017 | 14930 ft | 324 kts | 269° |
| 2026-05-08 00:51 | 39.43939 | -104.04939 | 14553 ft | 327 kts | 270° |
| 2026-05-08 00:51 | 39.43858 | -104.07863 | 14139 ft | 320 kts | 269° |
| 2026-05-08 00:51 | 39.43771 | -104.10685 | 13777 ft | 308 kts | 269° |
| 2026-05-08 00:52 | 39.43680 | -104.13405 | 13456 ft | 299 kts | 269° |
| 2026-05-08 00:52 | 39.43589 | -104.16053 | 13200 ft | 291 kts | 269° |
| 2026-05-08 00:52 | 39.43498 | -104.18651 | 12963 ft | 287 kts | 269° |
| 2026-05-08 00:52 | 39.43408 | -104.21214 | 12726 ft | 284 kts | 269° |
| 2026-05-08 00:53 | 39.43317 | -104.23769 | 12487 ft | 284 kts | 269° |
| 2026-05-08 00:53 | 39.43225 | -104.26317 | 12255 ft | 284 kts | 269° |
| 2026-05-08 00:53 | 39.43133 | -104.28870 | 12023 ft | 283 kts | 269° |
| 2026-05-08 00:53 | 39.43042 | -104.31370 | 11790 ft | 282 kts | 269° |
| 2026-05-08 00:54 | 39.42948 | -104.33910 | 11569 ft | 282 kts | 269° |
| 2026-05-08 00:54 | 39.42856 | -104.36436 | 11335 ft | 281 kts | 269° |
| 2026-05-08 00:54 | 39.42764 | -104.38955 | 11108 ft | 280 kts | 269° |
| 2026-05-08 00:54 | 39.42671 | -104.41447 | 10877 ft | 276 kts | 269° |
| 2026-05-08 00:55 | 39.42583 | -104.43901 | 10660 ft | 270 kts | 270° |
| 2026-05-08 00:55 | 39.42503 | -104.46313 | 10447 ft | 266 kts | 270° |
| 2026-05-08 00:55 | 39.42423 | -104.48686 | 10226 ft | 262 kts | 270° |
| 2026-05-08 00:55 | 39.42400 | -104.51000 | 9960 ft | 252 kts | 280° |
| 2026-05-08 00:56 | 39.43047 | -104.53026 | 9665 ft | 240 kts | 306° |
| 2026-05-08 00:56 | 39.44015 | -104.54745 | 9410 ft | 233 kts | 305° |
| 2026-05-08 00:56 | 39.44941 | -104.56436 | 9181 ft | 228 kts | 305° |
| 2026-05-08 00:56 | 39.45858 | -104.58096 | 9041 ft | 225 kts | 306° |
| 2026-05-08 00:57 | 39.46846 | -104.59645 | 8970 ft | 223 kts | 311° |
| 2026-05-08 00:57 | 39.47894 | -104.61137 | 8977 ft | 225 kts | 311° |
| 2026-05-08 00:57 | 39.48976 | -104.62590 | 8962 ft | 224 kts | 322° |
| 2026-05-08 00:57 | 39.50358 | -104.63349 | 9001 ft | 207 kts | 342° |
| 2026-05-08 00:58 | 39.51711 | -104.63866 | 9023 ft | 201 kts | 340° |
| 2026-05-08 00:58 | 39.53035 | -104.64343 | 8968 ft | 197 kts | 348° |
| 2026-05-08 00:58 | 39.54412 | -104.64443 | 8982 ft | 200 kts | 355° |
| 2026-05-08 00:58 | 39.55354 | -104.64458 | 8999 ft | 200 kts | 355° |
| 2026-05-08 00:59 | 39.56728 | -104.64474 | 8997 ft | 200 kts | 355° |
| 2026-05-08 00:59 | 39.58121 | -104.64470 | 8970 ft | 200 kts | 356° |
| 2026-05-08 00:59 | 39.59530 | -104.64458 | 8969 ft | 200 kts | 356° |
| 2026-05-08 00:59 | 39.60924 | -104.64444 | 8998 ft | 200 kts | 356° |
| 2026-05-08 01:00 | 39.62299 | -104.64428 | 8959 ft | 201 kts | 356° |
| 2026-05-08 01:00 | 39.63698 | -104.64411 | 8986 ft | 201 kts | 356° |
| 2026-05-08 01:00 | 39.65082 | -104.64393 | 8819 ft | 196 kts | 356° |
| 2026-05-08 01:00 | 39.66437 | -104.64376 | 8573 ft | 192 kts | 356° |
| 2026-05-08 01:01 | 39.67745 | -104.64359 | 8344 ft | 180 kts | 355° |
| 2026-05-08 01:01 | 39.68974 | -104.64345 | 8115 ft | 175 kts | 355° |
| 2026-05-08 01:01 | 39.70180 | -104.64331 | 7900 ft | 173 kts | 356° |
| 2026-05-08 01:01 | 39.71387 | -104.64316 | 7666 ft | 173 kts | 356° |
| 2026-05-08 01:02 | 39.72581 | -104.64302 | 7459 ft | 171 kts | 356° |
| 2026-05-08 01:02 | 39.73776 | -104.64286 | 7233 ft | 171 kts | 355° |
| 2026-05-08 01:02 | 39.74957 | -104.64273 | 7036 ft | 169 kts | 357° |
| 2026-05-08 01:02 | 39.76124 | -104.64260 | 6823 ft | 163 kts | 357° |
| 2026-05-08 01:03 | 39.77230 | -104.64245 | 6654 ft | 156 kts | 358° |
| 2026-05-08 01:03 | 39.78298 | -104.64230 | 6454 ft | 153 kts | 356° |
| 2026-05-08 01:03 | 39.79357 | -104.64212 | 6192 ft | 151 kts | 358° |
| 2026-05-08 01:03 | 39.80411 | -104.64197 | 5987 ft | 151 kts | 359° |
| 2026-05-08 01:04 | 39.81456 | -104.64197 | 5764 ft | 150 kts | 1° |
| 2026-05-08 01:04 | 39.82497 | -104.64182 | 5553 ft | 150 kts | 1° |
| 2026-05-08 01:04 | 39.83531 | -104.64168 | 5376 ft | 147 kts | 1° |
| 2026-05-08 01:04 | 39.84431 | -104.64157 | 5371 ft | 101 kts | 0° |
| 2026-05-08 01:05 | 39.84941 | -104.64153 | 5356 ft | 52 kts | 1° |
| 2026-05-08 01:05 | 39.85304 | -104.64145 | 5353 ft | 51 kts | 1° |
| 2026-05-08 01:05 | 39.85569 | -104.64204 | 5355 ft | 28 kts | 339° |
| 2026-05-08 01:05 | 39.85725 | -104.64318 | 5353 ft | 25 kts | 332° |
| 2026-05-08 01:06 | 39.85896 | -104.64355 | 5350 ft | 27 kts | 0° |
| 2026-05-08 01:06 | 39.86091 | -104.64352 | 5346 ft | 28 kts | 360° |
| 2026-05-08 01:06 | 39.86294 | -104.64351 | 5343 ft | 31 kts | 0° |
| 2026-05-08 01:06 | 39.86462 | -104.64353 | 5341 ft | 17 kts | 344° |
| 2026-05-08 01:07 | 39.86487 | -104.64461 | 5342 ft | 14 kts | 270° |
| 2026-05-08 01:07 | 39.86489 | -104.64623 | 5348 ft | 22 kts | 271° |
| 2026-05-08 01:07 | 39.86491 | -104.64851 | 5354 ft | 29 kts | 270° |
| 2026-05-08 01:07 | 39.86493 | -104.65140 | 5358 ft | 35 kts | 270° |
| 2026-05-08 01:08 | 39.86494 | -104.65458 | 5363 ft | 35 kts | 269° |
| 2026-05-08 01:08 | 39.86496 | -104.65761 | 5371 ft | 32 kts | 271° |
| 2026-05-08 01:08 | 39.86498 | -104.66026 | 5381 ft | 25 kts | 271° |
| 2026-05-08 01:08 | 39.86500 | -104.66228 | 5388 ft | 18 kts | 270° |
| 2026-05-08 01:09 | 39.86483 | -104.66343 | 5388 ft | 9 kts | 194° |
| 2026-05-08 01:09 | 39.86408 | -104.66343 | 5382 ft | 14 kts | 179° |
| 2026-05-08 01:09 | 39.86280 | -104.66346 | 5386 ft | 23 kts | 181° |
| 2026-05-08 01:09 | 39.86130 | -104.66354 | 5389 ft | 17 kts | 205° |
| 2026-05-08 01:10 | 39.86107 | -104.66487 | 5389 ft | 16 kts | 271° |
| 2026-05-08 01:10 | 39.86127 | -104.66631 | 5389 ft | 17 kts | 271° |
| 2026-05-08 01:10 | 39.86129 | -104.66785 | 5389 ft | 17 kts | 271° |
| 2026-05-08 01:10 | 39.86130 | -104.66946 | 5389 ft | 18 kts | 269° |
| 2026-05-08 01:11 | 39.86129 | -104.67113 | 5389 ft | 19 kts | 270° |
| 2026-05-08 01:11 | 39.86132 | -104.67255 | 5389 ft | 12 kts | 271° |
| 2026-05-08 01:11 | 39.86134 | -104.67363 | 5389 ft | 10 kts | 271° |
| 2026-05-08 01:11 | 39.86133 | -104.67424 | 5389 ft | 4 kts | 269° |
| 2026-05-08 01:12 | 39.86145 | -104.67456 | 5387 ft | 7 kts | 314° |
| 2026-05-08 01:12 | 39.86190 | -104.67510 | 5388 ft | 9 kts | 295° |
| 2026-05-08 01:12 | 39.86192 | -104.67546 | 5389 ft | 0 kts | 270° |
| 2026-05-08 01:12 | 39.86192 | -104.67554 | 5389 ft | 1 kts | 270° |
| 2026-05-08 01:13 | 39.86193 | -104.67571 | 5389 ft | 3 kts | 273° |
| 2026-05-08 01:13 | 39.86194 | -104.67606 | 5389 ft | 7 kts | 270° |
| 2026-05-08 01:13 | 39.86195 | -104.67688 | 5384 ft | 9 kts | 271° |
| 2026-05-08 01:13 | 39.86207 | -104.67735 | 5389 ft | 5 kts | 329° |
| 2026-05-08 01:14 | 39.86240 | -104.67737 | 5389 ft | 4 kts | 0° |
| 2026-05-08 01:14 | 39.86254 | -104.67737 | 5389 ft | 1 kts | 1° |
| 2026-05-08 01:14 | 39.86256 | -104.67737 | 5389 ft | 0 kts | 1° |